createdAt,value
2023-01-26T00:00:11.045Z,1.39
2023-01-26T00:03:14.628Z,1.37
2023-01-26T00:06:18.649Z,1.38
2023-01-26T00:09:20.805Z,1.37
2023-01-26T00:12:22.915Z,1.35
2023-01-26T00:15:25.079Z,1.32
2023-01-26T00:18:27.477Z,1.34
2023-01-26T00:21:29.647Z,1.36
2023-01-26T00:24:31.711Z,1.32
2023-01-26T00:27:33.909Z,1.31
2023-01-26T00:30:40.762Z,1.30
2023-01-26T00:33:43.145Z,1.30
2023-01-26T00:36:45.257Z,1.31
2023-01-26T00:39:47.378Z,1.30
2023-01-26T00:42:49.593Z,1.33
2023-01-26T00:45:51.787Z,1.34
2023-01-26T00:48:53.930Z,1.30
2023-01-26T00:51:56.110Z,1.33
2023-01-26T00:54:58.324Z,1.37
2023-01-26T00:58:01.343Z,1.36
2023-01-26T01:01:05.838Z,1.35
2023-01-26T01:04:08.116Z,1.33
2023-01-26T01:07:10.270Z,1.33
2023-01-26T01:10:12.637Z,1.32
2023-01-26T01:13:14.830Z,1.29
2023-01-26T01:16:18.187Z,1.29
2023-01-26T01:19:20.629Z,1.29
2023-01-26T01:22:22.930Z,1.28
2023-01-26T01:25:25.034Z,1.28
2023-01-26T01:28:27.920Z,1.28
2023-01-26T01:31:30.625Z,1.28
2023-01-26T01:34:32.824Z,1.26
2023-01-26T01:37:36.948Z,1.27
2023-01-26T01:40:43.907Z,1.30
2023-01-26T01:43:46.196Z,1.27
2023-01-26T01:46:59.196Z,1.26
2023-01-26T01:50:04.457Z,1.28
2023-01-26T01:53:13.238Z,1.29
2023-01-26T01:56:23.756Z,1.29
2023-01-26T01:59:26.135Z,1.28
2023-01-26T02:02:28.813Z,1.30
2023-01-26T02:05:35.948Z,1.31
2023-01-26T02:08:51.556Z,1.30
2023-01-26T02:11:54.874Z,1.30
2023-01-26T02:14:58.257Z,1.26
2023-01-26T02:18:04.135Z,1.21
2023-01-26T02:21:11.647Z,1.15
2023-01-26T02:24:26.688Z,1.17
2023-01-26T02:27:28.811Z,1.19
2023-01-26T02:30:32.635Z,1.20
2023-01-26T02:33:35.524Z,1.15
2023-01-26T02:36:37.781Z,1.16
2023-01-26T02:39:49.819Z,1.17
2023-01-26T02:42:54.987Z,1.20
2023-01-26T02:45:57.238Z,1.17
2023-01-26T02:49:19.800Z,1.19
2023-01-26T02:52:26.040Z,1.19
2023-01-26T02:55:31.141Z,1.19
2023-01-26T02:58:33.355Z,1.15
2023-01-26T03:01:35.867Z,1.11
2023-01-26T03:04:37.999Z,1.10
2023-01-26T03:07:40.137Z,1.09
2023-01-26T03:10:43.442Z,1.09
2023-01-26T03:13:45.483Z,1.06
2023-01-26T03:16:47.570Z,1.02
2023-01-26T03:20:08.472Z,1.02
2023-01-26T03:23:30.665Z,1.06
2023-01-26T03:26:51.228Z,1.07
2023-01-26T03:29:55.079Z,1.09
2023-01-26T03:32:57.312Z,1.05
2023-01-26T03:35:59.683Z,1.06
2023-01-26T03:39:01.788Z,1.06
2023-01-26T03:42:23.471Z,1.08
2023-01-26T03:45:44.163Z,1.07
2023-01-26T03:49:04.784Z,1.06
2023-01-26T03:52:25.837Z,1.03
2023-01-26T03:55:46.475Z,1.02
2023-01-26T03:58:51.807Z,1.05
2023-01-26T04:02:12.572Z,1.07
2023-01-26T04:05:33.059Z,1.04
2023-01-26T04:08:35.122Z,1.07
2023-01-26T04:11:37.243Z,1.06
2023-01-26T04:14:57.957Z,1.02
2023-01-26T04:18:24.798Z,1.05
2023-01-26T04:21:27.065Z,1.04
2023-01-26T04:24:30.423Z,1.04
2023-01-26T04:27:35.580Z,1.07
2023-01-26T04:30:40.010Z,1.09
2023-01-26T04:33:42.875Z,1.11
2023-01-26T04:36:45.034Z,1.10
2023-01-26T04:39:47.384Z,1.09
2023-01-26T04:42:51.907Z,1.07
2023-01-26T04:46:01.969Z,1.09
2023-01-26T04:49:04.175Z,1.12
2023-01-26T04:52:06.342Z,1.04
2023-01-26T04:55:08.866Z,1.05
2023-01-26T04:58:11.012Z,1.10
2023-01-26T05:01:13.515Z,1.07
2023-01-26T05:04:15.676Z,1.08
2023-01-26T05:07:17.901Z,1.08
2023-01-26T05:10:20.493Z,1.06
2023-01-26T05:13:22.768Z,1.07
2023-01-26T05:16:25.143Z,1.09
2023-01-26T05:19:27.616Z,1.08
2023-01-26T05:22:29.968Z,1.04
2023-01-26T05:25:32.374Z,1.01
2023-01-26T05:28:35.902Z,1.00
2023-01-26T05:31:37.997Z,0.99
2023-01-26T05:34:40.174Z,0.97
2023-01-26T05:37:42.605Z,1.00
2023-01-26T05:40:45.611Z,0.99
2023-01-26T05:43:47.705Z,0.99
2023-01-26T05:46:49.796Z,1.02
2023-01-26T05:49:52.174Z,0.99
2023-01-26T05:52:54.380Z,0.96
2023-01-26T05:55:56.520Z,0.92
2023-01-26T05:58:58.655Z,0.93
2023-01-26T06:02:01.722Z,0.95
2023-01-26T06:05:04.899Z,0.93
2023-01-26T06:08:07.153Z,0.92
2023-01-26T06:11:09.891Z,0.96
2023-01-26T06:14:12.499Z,0.95
2023-01-26T06:17:16.425Z,0.95
2023-01-26T06:20:19.142Z,0.94
2023-01-26T06:23:21.502Z,0.99
2023-01-26T06:26:26.863Z,0.95
2023-01-26T06:29:29.208Z,0.91
2023-01-26T06:32:31.328Z,0.94
2023-01-26T06:35:36.158Z,0.91
2023-01-26T06:38:39.145Z,0.94
2023-01-26T06:41:44.346Z,0.92
2023-01-26T06:44:46.579Z,0.95
2023-01-26T06:47:50.292Z,0.92
2023-01-26T06:50:53.598Z,0.95
2023-01-26T06:53:57.988Z,0.96
2023-01-26T06:57:00.170Z,0.96
2023-01-26T07:00:03.143Z,0.99
2023-01-26T07:03:06.349Z,0.98
2023-01-26T07:06:11.939Z,0.99
2023-01-26T07:09:14.082Z,1.00
2023-01-26T07:12:16.246Z,0.97
2023-01-26T07:15:18.389Z,0.98
2023-01-26T07:18:20.463Z,0.98
2023-01-26T07:21:23.275Z,0.97
2023-01-26T07:24:26.012Z,0.99
2023-01-26T07:27:28.194Z,1.03
2023-01-26T07:30:31.068Z,1.02
2023-01-26T07:33:34.447Z,1.01
2023-01-26T07:36:36.610Z,1.01
2023-01-26T07:39:38.762Z,1.04
2023-01-26T07:42:41.416Z,1.02
2023-01-26T07:45:47.510Z,1.05
2023-01-26T07:48:49.772Z,1.06
2023-01-26T07:51:52.696Z,1.06
2023-01-26T07:54:54.853Z,1.04
2023-01-26T07:57:57.961Z,1.04
2023-01-26T08:01:07.814Z,1.05
2023-01-26T08:04:09.948Z,1.11
2023-01-26T08:07:15.645Z,1.12
2023-01-26T08:10:18.501Z,1.10
2023-01-26T08:13:33.730Z,1.13
2023-01-26T08:16:36.812Z,1.16
2023-01-26T08:19:39.216Z,1.17
2023-01-26T08:22:44.625Z,1.19
2023-01-26T08:25:47.474Z,1.21
2023-01-26T08:28:50.145Z,1.21
2023-01-26T08:31:52.449Z,1.22
2023-01-26T08:34:54.595Z,1.22
2023-01-26T08:37:56.793Z,1.24
2023-01-26T08:40:59.909Z,1.25
2023-01-26T08:44:02.111Z,1.26
2023-01-26T08:47:04.247Z,1.27
2023-01-26T08:50:06.755Z,1.24
2023-01-26T08:53:09.058Z,1.25
2023-01-26T08:56:13.171Z,1.22
2023-01-26T08:59:15.279Z,1.26
2023-01-26T09:02:17.507Z,1.27
2023-01-26T09:05:19.831Z,1.30
2023-01-26T09:08:22.289Z,1.27
2023-01-26T09:11:24.754Z,1.29
2023-01-26T09:14:27.677Z,1.29
2023-01-26T09:17:30.212Z,1.29
2023-01-26T09:20:32.627Z,1.31
2023-01-26T09:23:35.704Z,1.34
2023-01-26T09:26:37.836Z,1.36
2023-01-26T09:29:40.333Z,1.36
2023-01-26T09:32:43.352Z,1.32
2023-01-26T09:35:45.519Z,1.28
2023-01-26T09:38:48.109Z,1.30
2023-01-26T09:42:18.022Z,1.31
2023-01-26T09:45:52.067Z,1.32
2023-01-26T09:49:00.366Z,1.28
2023-01-26T09:52:14.299Z,1.28
2023-01-26T09:55:21.226Z,1.32
2023-01-26T09:58:39.740Z,1.29
2023-01-26T10:02:06.360Z,1.22
2023-01-26T10:05:20.577Z,1.30
2023-01-26T10:08:27.061Z,1.32
2023-01-26T10:11:35.453Z,1.38
2023-01-26T10:14:40.903Z,1.42
2023-01-26T10:17:46.051Z,1.37
2023-01-26T10:20:55.302Z,1.37
2023-01-26T10:24:01.422Z,1.35
2023-01-26T10:27:10.542Z,1.39
2023-01-26T10:30:15.215Z,1.47
2023-01-26T10:33:21.098Z,1.44
2023-01-26T10:36:24.030Z,1.48
2023-01-26T10:39:26.309Z,1.46
2023-01-26T10:42:34.487Z,1.42
2023-01-26T10:45:46.355Z,1.48
2023-01-26T10:48:53.307Z,1.55
2023-01-26T10:52:18.669Z,1.58
2023-01-26T10:55:21.612Z,1.44
2023-01-26T10:58:42.468Z,1.47
2023-01-26T11:02:00.786Z,1.45
2023-01-26T11:05:09.288Z,1.45
2023-01-26T11:08:32.957Z,1.51
2023-01-26T11:11:35.044Z,1.54
2023-01-26T11:14:37.175Z,1.55
2023-01-26T11:17:43.855Z,1.57
2023-01-26T11:20:57.261Z,1.57
2023-01-26T11:24:21.518Z,1.54
2023-01-26T11:27:26.507Z,1.54
2023-01-26T11:30:40.750Z,1.52
2023-01-26T11:33:55.016Z,1.46
2023-01-26T11:37:30.511Z,1.47
2023-01-26T11:40:44.774Z,1.47
2023-01-26T11:43:54.879Z,1.45
2023-01-26T11:47:33.835Z,1.42
2023-01-26T11:50:41.340Z,1.42
2023-01-26T11:54:04.999Z,1.41
2023-01-26T11:57:19.408Z,1.44
2023-01-26T12:00:33.768Z,1.41
2023-01-26T12:03:45.480Z,1.38
2023-01-26T12:07:01.743Z,1.39
2023-01-26T12:10:07.281Z,1.38
2023-01-26T12:13:41.261Z,1.34
2023-01-26T12:16:49.387Z,1.29
2023-01-26T12:20:04.604Z,1.26
2023-01-26T12:23:09.743Z,1.29
2023-01-26T12:26:21.335Z,1.29
2023-01-26T12:29:34.746Z,1.32
2023-01-26T12:32:36.993Z,1.37
2023-01-26T12:35:55.058Z,1.37
2023-01-26T12:39:12.691Z,1.42
2023-01-26T12:42:24.146Z,1.43
2023-01-26T12:45:33.849Z,1.48
2023-01-26T12:48:47.236Z,1.48
2023-01-26T12:51:55.539Z,1.53
2023-01-26T12:55:17.057Z,1.52
2023-01-26T12:58:26.225Z,1.52
2023-01-26T13:01:39.125Z,1.58
2023-01-26T13:04:44.121Z,1.53
2023-01-26T13:07:46.192Z,1.58
2023-01-26T13:10:51.470Z,1.52
2023-01-26T13:13:55.293Z,1.48
2023-01-26T13:17:19.143Z,1.41
2023-01-26T13:20:25.967Z,1.43
2023-01-26T13:23:46.874Z,1.44
2023-01-26T13:26:53.124Z,1.37
2023-01-26T13:29:56.028Z,1.29
2023-01-26T13:33:19.071Z,1.28
2023-01-26T13:36:23.425Z,1.12
2023-01-26T13:39:44.441Z,1.07
2023-01-26T13:43:00.728Z,1.03
2023-01-26T13:46:17.848Z,1.04
2023-01-26T13:49:37.639Z,1.00
2023-01-26T13:52:43.280Z,1.04
2023-01-26T13:55:50.198Z,1.04
2023-01-26T13:58:53.337Z,1.02
2023-01-26T14:01:57.278Z,1.03
2023-01-26T14:05:01.652Z,1.02
2023-01-26T14:08:04.507Z,1.03
2023-01-26T14:11:18.039Z,1.07
2023-01-26T14:14:27.003Z,1.07
2023-01-26T14:17:34.734Z,1.06
2023-01-26T14:20:39.785Z,1.08
2023-01-26T14:23:41.885Z,1.08
2023-01-26T14:26:44.772Z,1.05
2023-01-26T14:29:47.903Z,1.05
2023-01-26T14:32:58.799Z,1.04
2023-01-26T14:36:03.479Z,1.00
2023-01-26T14:39:16.506Z,1.06
2023-01-26T14:42:20.831Z,1.04
2023-01-26T14:45:33.232Z,1.00
2023-01-26T14:48:42.104Z,1.02
2023-01-26T14:51:46.288Z,1.01
2023-01-26T14:54:50.396Z,0.95
2023-01-26T14:57:54.138Z,0.97
2023-01-26T15:00:59.034Z,0.99
2023-01-26T15:04:22.057Z,0.95
2023-01-26T15:07:45.188Z,0.99
2023-01-26T15:10:56.001Z,0.99
2023-01-26T15:13:58.068Z,1.01
2023-01-26T15:17:00.586Z,0.99
2023-01-26T15:20:24.391Z,0.97
2023-01-26T15:23:35.077Z,0.95
2023-01-26T15:26:38.439Z,0.97
2023-01-26T15:29:40.806Z,0.96
2023-01-26T15:32:44.034Z,0.95
2023-01-26T15:35:57.986Z,0.88
2023-01-26T15:39:03.876Z,0.84
2023-01-26T15:42:13.660Z,0.83
2023-01-26T15:45:26.255Z,0.90
2023-01-26T15:48:31.893Z,0.82
2023-01-26T15:51:34.062Z,0.81
2023-01-26T15:54:36.251Z,0.85
2023-01-26T15:57:38.428Z,0.81
2023-01-26T16:00:41.461Z,0.79
2023-01-26T16:03:45.176Z,0.76
2023-01-26T16:06:47.245Z,0.74
2023-01-26T16:09:51.127Z,0.74
2023-01-26T16:12:55.231Z,0.75
2023-01-26T16:15:58.717Z,0.75
2023-01-26T16:19:02.743Z,0.76
2023-01-26T16:22:06.845Z,0.75
2023-01-26T16:25:29.111Z,0.80
2023-01-26T16:28:33.087Z,0.73
2023-01-26T16:31:37.388Z,0.71
2023-01-26T16:34:40.693Z,0.70
2023-01-26T16:37:44.755Z,0.71
2023-01-26T16:40:50.236Z,0.68
2023-01-26T16:44:00.682Z,0.69
2023-01-26T16:47:05.919Z,0.71
2023-01-26T16:50:11.183Z,0.64
2023-01-26T16:53:37.290Z,0.63
2023-01-26T16:56:41.455Z,0.59
2023-01-26T16:59:46.018Z,0.56
2023-01-26T17:02:53.587Z,0.54
2023-01-26T17:05:58.767Z,0.53
2023-01-26T17:09:02.793Z,0.48
2023-01-26T17:12:08.843Z,0.49
2023-01-26T17:15:14.196Z,0.47
2023-01-26T17:18:19.968Z,0.47
2023-01-26T17:21:25.244Z,0.42
2023-01-26T17:24:32.650Z,0.42
2023-01-26T17:27:37.573Z,0.40
2023-01-26T17:30:43.137Z,0.42
2023-01-26T17:33:48.501Z,0.39
2023-01-26T17:36:52.606Z,0.38
2023-01-26T17:39:57.163Z,0.37
2023-01-26T17:43:01.668Z,0.37
2023-01-26T17:46:14.747Z,0.35
2023-01-26T17:49:21.952Z,0.37
2023-01-26T17:52:26.778Z,0.35
2023-01-26T17:55:31.188Z,0.34
2023-01-26T17:58:33.917Z,0.30
2023-01-26T18:01:37.642Z,0.37
2023-01-26T18:04:40.268Z,0.33
2023-01-26T18:07:43.036Z,0.33
2023-01-26T18:10:45.427Z,0.36
2023-01-26T18:13:52.392Z,0.29
2023-01-26T18:16:55.948Z,0.29
2023-01-26T18:19:59.353Z,0.28
2023-01-26T18:23:05.559Z,0.27
2023-01-26T18:26:08.840Z,0.30
2023-01-26T18:29:11.748Z,0.26
2023-01-26T18:32:15.323Z,0.26
2023-01-26T18:35:19.242Z,0.30
2023-01-26T18:38:22.254Z,0.34
2023-01-26T18:41:26.838Z,0.30
2023-01-26T18:44:30.156Z,0.32
2023-01-26T18:47:34.164Z,0.32
2023-01-26T18:50:39.098Z,0.30
2023-01-26T18:53:42.980Z,0.30
2023-01-26T18:56:47.490Z,0.34
2023-01-26T18:59:50.383Z,0.32
2023-01-26T19:02:54.089Z,0.30
2023-01-26T19:05:58.085Z,0.31
2023-01-26T19:09:18.237Z,0.27
2023-01-26T19:12:21.320Z,0.23
2023-01-26T19:15:25.182Z,0.20
2023-01-26T19:18:28.830Z,0.20
2023-01-26T19:21:34.005Z,0.16
2023-01-26T19:24:37.723Z,0.18
2023-01-26T19:27:40.989Z,0.20
2023-01-26T19:30:45.434Z,0.18
2023-01-26T19:34:00.416Z,0.20
2023-01-26T19:37:03.544Z,0.21
2023-01-26T19:40:07.884Z,0.23
2023-01-26T19:43:13.053Z,0.26
2023-01-26T19:46:18.319Z,0.26
2023-01-26T19:49:22.935Z,0.24
2023-01-26T19:52:26.249Z,0.18
2023-01-26T19:55:30.851Z,0.18
2023-01-26T19:58:35.340Z,0.18
2023-01-26T20:01:38.379Z,0.20
2023-01-26T20:04:42.211Z,0.19
2023-01-26T20:07:46.919Z,0.22
2023-01-26T20:10:51.517Z,0.21
2023-01-26T20:13:58.199Z,0.19
2023-01-26T20:17:02.392Z,0.18
2023-01-26T20:20:16.971Z,0.20
2023-01-26T20:23:22.380Z,0.19
2023-01-26T20:26:31.628Z,0.19
2023-01-26T20:29:37.129Z,0.21
2023-01-26T20:32:44.514Z,0.23
2023-01-26T20:35:48.489Z,0.20
2023-01-26T20:38:52.925Z,0.19
2023-01-26T20:41:56.210Z,0.21
2023-01-26T20:45:02.841Z,0.25
2023-01-26T20:48:09.027Z,0.28
2023-01-26T20:51:14.244Z,0.26
2023-01-26T20:54:17.922Z,0.28
2023-01-26T20:57:23.518Z,0.27
2023-01-26T21:00:27.151Z,0.28
2023-01-26T21:03:30.738Z,0.28
2023-01-26T21:06:34.788Z,0.27
2023-01-26T21:09:37.873Z,0.28
2023-01-26T21:12:41.088Z,0.30
2023-01-26T21:15:43.940Z,0.32
2023-01-26T21:18:46.464Z,0.26
2023-01-26T21:21:48.992Z,0.26
2023-01-26T21:24:52.105Z,0.20
2023-01-26T21:27:54.440Z,0.22
2023-01-26T21:31:06.299Z,0.17
2023-01-26T21:34:09.986Z,0.13
2023-01-26T21:37:12.214Z,0.15
2023-01-26T21:40:14.995Z,0.15
2023-01-26T21:43:17.612Z,0.13
2023-01-26T21:46:19.781Z,0.15
2023-01-26T21:49:24.729Z,0.11
2023-01-26T21:52:56.823Z,0.08
2023-01-26T21:55:59.173Z,0.07
2023-01-26T21:59:03.271Z,0.07
2023-01-26T22:02:05.380Z,0.05
2023-01-26T22:05:09.668Z,0.08
2023-01-26T22:08:11.924Z,0.09
2023-01-26T22:11:14.785Z,0.09
2023-01-26T22:14:22.567Z,0.07
2023-01-26T22:17:24.986Z,0.04
2023-01-26T22:20:27.486Z,0.05
2023-01-26T22:23:38.279Z,0.05
2023-01-26T22:26:40.753Z,0.04
2023-01-26T22:29:42.958Z,0.02
2023-01-26T22:32:45.072Z,0.01
2023-01-26T22:35:47.263Z,0.01
2023-01-26T22:38:50.010Z,0.01
2023-01-26T22:41:52.066Z,0.02
2023-01-26T22:44:54.229Z,0.05
2023-01-26T22:47:56.291Z,0.02
2023-01-26T22:51:06.624Z,-0.01
2023-01-26T22:54:09.396Z,-0.04
2023-01-26T22:57:11.459Z,-0.05
2023-01-26T23:00:14.436Z,-0.06
2023-01-26T23:03:18.037Z,-0.08
2023-01-26T23:06:20.638Z,-0.09
2023-01-26T23:09:22.778Z,-0.09
2023-01-26T23:12:24.899Z,-0.09
2023-01-26T23:15:26.972Z,-0.10
2023-01-26T23:18:29.403Z,-0.12
2023-01-26T23:21:31.618Z,-0.14
2023-01-26T23:24:33.878Z,-0.13
2023-01-26T23:27:35.962Z,-0.12
2023-01-26T23:30:38.234Z,-0.13
2023-01-26T23:33:41.052Z,-0.17
2023-01-26T23:36:43.274Z,-0.16
2023-01-26T23:39:45.428Z,-0.13
2023-01-26T23:43:03.348Z,-0.13
2023-01-26T23:46:10.559Z,-0.11
2023-01-26T23:49:13.946Z,-0.06
2023-01-26T23:52:16.614Z,-0.05
2023-01-26T23:55:19.210Z,-0.04
2023-01-26T23:58:21.326Z,-0.05
